Time;durP1;ratioP1;P1;durP2;ratioP2;P2;SDS_P1;SDS_P2;PMS_P1;PMS_P2;Temp;Humidity;BMP_temperature;BMP_pressure;BME280_temperature;BME280_humidity;BME280_pressure;Samples;Min_cycle;Max_cycle;Signal;HPM_P1;HPM_P2
2023/04/15 00:02:12;;;;;;;3.35;0.75;;;13.30;82.70;;;;;;4991819;28;20081;-75
2023/04/15 00:04:38;;;;;;;1.58;0.90;;;13.20;83.00;;;;;;4974950;28;20476;-75
2023/04/15 00:07:04;;;;;;;1.67;0.90;;;13.20;83.10;;;;;;5002731;28;20088;-75
2023/04/15 00:09:29;;;;;;;2.03;1.20;;;13.20;83.30;;;;;;4995960;28;20039;-75
2023/04/15 00:11:55;;;;;;;1.70;0.90;;;13.20;83.50;;;;;;4994176;28;20370;-75
2023/04/15 00:14:21;;;;;;;2.25;0.82;;;13.20;83.70;;;;;;4991960;28;20038;-75
2023/04/15 00:16:48;;;;;;;3.50;1.00;;;13.20;83.90;;;;;;4993637;28;20034;-75
2023/04/15 00:19:14;;;;;;;1.45;0.80;;;13.20;84.00;;;;;;4992695;28;20034;-75
2023/04/15 00:21:40;;;;;;;1.48;1.02;;;13.20;84.20;;;;;;5001740;28;20088;-75
2023/04/15 00:24:05;;;;;;;1.45;0.80;;;13.20;84.50;;;;;;5000834;28;20491;-75
2023/04/15 00:26:31;;;;;;;3.15;1.55;;;13.10;84.50;;;;;;4993660;28;20030;-75
2023/04/15 00:28:57;;;;;;;2.17;1.20;;;13.10;84.60;;;;;;4993733;28;20500;-75
2023/04/15 00:31:22;;;;;;;1.75;1.15;;;13.10;84.60;;;;;;4992341;28;20030;-76
2023/04/15 00:33:48;;;;;;;2.53;1.55;;;13.00;84.80;;;;;;4993719;28;20042;-76
2023/04/15 00:36:14;;;;;;;2.20;1.10;;;13.00;85.00;;;;;;4989674;28;20464;-75
2023/04/15 00:38:40;;;;;;;1.35;1.10;;;13.00;85.10;;;;;;4993992;28;20031;-75
2023/04/15 00:41:06;;;;;;;3.78;0.95;;;13.00;85.10;;;;;;4995815;28;20342;-75
2023/04/15 00:43:32;;;;;;;2.00;1.20;;;13.00;85.10;;;;;;4994393;28;20088;-75
2023/04/15 00:45:59;;;;;;;1.52;1.33;;;13.00;85.00;;;;;;4992792;28;20113;-75
2023/04/15 00:48:26;;;;;;;1.60;1.25;;;12.90;85.00;;;;;;5000353;28;20117;-75
2023/04/15 00:50:52;;;;;;;2.05;1.50;;;12.90;85.20;;;;;;4999242;28;20018;-75
2023/04/15 00:53:18;;;;;;;1.85;0.80;;;12.90;85.30;;;;;;4999097;28;20026;-75
2023/04/15 00:55:43;;;;;;;1.58;1.15;;;12.80;85.40;;;;;;4991833;28;20042;-74
2023/04/15 00:58:09;;;;;;;2.28;1.20;;;12.80;85.60;;;;;;4998687;28;20117;-74
2023/04/15 01:00:36;;;;;;;1.17;1.08;;;12.80;85.60;;;;;;4991967;28;20030;-74
2023/04/15 01:03:02;;;;;;;2.05;1.25;;;12.80;85.50;;;;;;5005706;28;20594;-74
2023/04/15 01:05:28;;;;;;;1.13;1.02;;;12.80;85.50;;;;;;4992285;28;20109;-74
2023/04/15 01:07:55;;;;;;;1.60;1.00;;;12.80;85.60;;;;;;5000616;28;20484;-73
2023/04/15 01:10:21;;;;;;;1.38;1.00;;;12.80;85.60;;;;;;4999879;28;20069;-73
2023/04/15 01:12:46;;;;;;;1.10;1.00;;;12.80;85.70;;;;;;5006558;28;20511;-73
2023/04/15 01:15:12;;;;;;;2.13;1.10;;;12.70;85.50;;;;;;4996169;28;20059;-73
2023/04/15 01:17:38;;;;;;;1.20;0.98;;;12.80;85.70;;;;;;4997715;28;20044;-73
2023/04/15 01:20:05;;;;;;;3.55;1.30;;;12.70;85.70;;;;;;4998743;28;20038;-74
2023/04/15 01:22:33;;;;;;;2.10;1.08;;;12.80;85.80;;;;;;5002492;28;20101;-73
2023/04/15 01:25:15;;;;;;;2.03;1.40;;;12.70;85.70;;;;;;4997409;28;20038;-73
2023/04/15 01:27:41;;;;;;;2.33;1.00;;;12.80;85.50;;;;;;4998623;28;20052;-74
2023/04/15 01:30:09;;;;;;;2.20;1.42;;;12.70;85.40;;;;;;5002109;28;20029;-75
2023/04/15 01:32:35;;;;;;;1.40;1.10;;;12.80;85.50;;;;;;4994285;28;20129;-74
2023/04/15 01:35:01;;;;;;;2.00;1.13;;;12.70;85.40;;;;;;5000923;28;20034;-74
2023/04/15 01:37:28;;;;;;;1.48;1.17;;;12.80;85.40;;;;;;5004062;28;20484;-74
2023/04/15 01:39:54;;;;;;;1.30;1.17;;;12.70;85.40;;;;;;4994353;28;20034;-74
2023/04/15 01:42:21;;;;;;;1.90;1.10;;;12.70;85.50;;;;;;5006512;28;20033;-74
2023/04/15 01:44:46;;;;;;;2.10;1.00;;;12.70;85.60;;;;;;5000207;28;20439;-74
2023/04/15 01:47:13;;;;;;;1.65;1.23;;;12.70;85.80;;;;;;4998899;28;20042;-74
2023/04/15 01:49:38;;;;;;;2.40;1.20;;;12.60;85.80;;;;;;5004942;28;20038;-74
2023/04/15 01:52:04;;;;;;;1.75;1.27;;;12.60;85.90;;;;;;4998771;28;20026;-74
2023/04/15 01:54:30;;;;;;;1.27;1.10;;;12.60;85.90;;;;;;4999557;28;20039;-74
2023/04/15 01:56:55;;;;;;;2.28;1.00;;;12.60;86.00;;;;;;5002299;28;20034;-74
2023/04/15 01:59:21;;;;;;;1.30;0.93;;;12.60;86.10;;;;;;4998205;28;20026;-74
2023/04/15 02:01:47;;;;;;;1.65;1.08;;;12.60;86.10;;;;;;4999176;28;20487;-73
2023/04/15 02:04:16;;;;;;;3.20;1.10;;;12.60;86.20;;;;;;4997367;28;20049;-74
2023/04/15 02:06:43;;;;;;;1.13;0.95;;;12.60;86.30;;;;;;4997178;28;20034;-74
2023/04/15 02:09:09;;;;;;;1.42;1.20;;;12.50;86.40;;;;;;4992767;28;20030;-74
2023/04/15 02:11:36;;;;;;;2.83;1.20;;;12.50;86.60;;;;;;4997927;28;20038;-75
2023/04/15 02:14:03;;;;;;;1.42;1.02;;;12.60;86.70;;;;;;4989680;28;20054;-74
2023/04/15 02:16:29;;;;;;;1.40;1.30;;;12.60;86.80;;;;;;4993468;28;20026;-74
2023/04/15 02:18:55;;;;;;;2.92;1.20;;;12.60;86.80;;;;;;4999825;28;20015;-74
2023/04/15 02:21:21;;;;;;;1.48;1.08;;;12.50;86.70;;;;;;4998923;28;20105;-74
2023/04/15 02:23:47;;;;;;;1.35;0.82;;;12.50;86.90;;;;;;4999992;28;20022;-73
2023/04/15 02:26:13;;;;;;;1.20;1.00;;;12.50;87.00;;;;;;4990252;28;20022;-74
2023/04/15 02:28:39;;;;;;;1.52;1.27;;;12.50;87.20;;;;;;4999153;28;20480;-74
2023/04/15 02:31:08;;;;;;;2.38;1.23;;;12.50;87.20;;;;;;4996678;28;20042;-74
2023/04/15 02:33:35;;;;;;;1.95;1.27;;;12.50;87.40;;;;;;4990895;28;20033;-74
2023/04/15 02:36:01;;;;;;;2.40;1.30;;;12.50;87.40;;;;;;4999085;28;20029;-74
2023/04/15 02:38:27;;;;;;;1.40;1.30;;;12.50;87.50;;;;;;4997196;28;20026;-74
2023/04/15 02:40:52;;;;;;;2.03;1.55;;;12.50;87.50;;;;;;5004743;28;20109;-74
2023/04/15 02:43:18;;;;;;;3.40;2.00;;;12.50;87.60;;;;;;5000712;28;20505;-74
2023/04/15 02:45:46;;;;;;;3.15;1.52;;;12.50;87.60;;;;;;4990492;28;20038;-74
2023/04/15 02:48:11;;;;;;;1.88;1.40;;;12.40;87.50;;;;;;4994381;28;20073;-74
2023/04/15 02:50:40;;;;;;;1.63;1.52;;;12.40;87.70;;;;;;5003189;28;20046;-74
2023/04/15 02:53:06;;;;;;;4.60;1.70;;;12.50;87.80;;;;;;5002679;28;20105;-74
2023/04/15 02:55:32;;;;;;;2.88;1.60;;;12.40;87.80;;;;;;4994597;28;20493;-74
2023/04/15 02:57:59;;;;;;;5.43;2.17;;;12.40;87.90;;;;;;4999385;28;20065;-75
2023/04/15 03:00:26;;;;;;;3.17;1.85;;;12.40;88.00;;;;;;5000737;28;20037;-74
2023/04/15 03:02:57;;;;;;;3.88;1.90;;;12.40;88.00;;;;;;5006816;28;20014;-75
2023/04/15 03:05:24;;;;;;;1.67;1.58;;;12.40;87.90;;;;;;4996976;28;20037;-74
2023/04/15 03:07:50;;;;;;;2.42;2.03;;;12.40;88.00;;;;;;5003595;28;20034;-75
2023/04/15 03:10:16;;;;;;;2.08;1.75;;;12.40;88.20;;;;;;5003638;28;20038;-74
2023/04/15 03:12:42;;;;;;;2.28;2.08;;;12.40;88.30;;;;;;5000946;28;20046;-75
2023/04/15 03:15:08;;;;;;;2.10;1.75;;;12.30;88.30;;;;;;4995507;28;20034;-75
2023/04/15 03:17:34;;;;;;;3.10;2.17;;;12.30;88.50;;;;;;4999065;28;20532;-75
2023/04/15 03:20:04;;;;;;;4.47;2.50;;;12.30;88.70;;;;;;5000374;28;20110;-73
2023/04/15 03:22:30;;;;;;;3.22;2.33;;;12.30;88.80;;;;;;4999155;28;20021;-74
2023/04/15 03:24:56;;;;;;;2.17;1.98;;;12.30;89.00;;;;;;5001104;28;20096;-74
2023/04/15 03:27:22;;;;;;;3.45;2.60;;;12.30;89.00;;;;;;4998382;28;20031;-73
2023/04/15 03:29:48;;;;;;;3.10;2.65;;;12.30;89.10;;;;;;5008795;28;20038;-73
2023/04/15 03:32:14;;;;;;;2.75;2.30;;;12.30;89.20;;;;;;4985072;28;20117;-74
2023/04/15 03:34:41;;;;;;;3.55;2.45;;;12.30;89.30;;;;;;5003351;28;20033;-74
2023/04/15 03:37:07;;;;;;;3.72;2.35;;;12.30;89.50;;;;;;5002721;28;20022;-74
2023/04/15 03:39:33;;;;;;;3.97;2.85;;;12.30;89.60;;;;;;5002926;28;20460;-74
2023/04/15 03:41:58;;;;;;;2.75;2.53;;;12.30;89.60;;;;;;5000916;28;20056;-74
2023/04/15 03:44:27;;;;;;;3.38;2.65;;;12.30;89.70;;;;;;5003933;28;20393;-74
2023/04/15 03:46:53;;;;;;;2.85;2.50;;;12.20;89.80;;;;;;4980602;28;20424;-74
2023/04/15 03:49:19;;;;;;;3.95;2.70;;;12.20;89.90;;;;;;5004555;28;20037;-74
2023/04/15 03:51:45;;;;;;;4.20;2.92;;;12.20;90.00;;;;;;5003177;28;20436;-74
2023/04/15 03:54:14;;;;;;;4.63;2.30;;;12.20;90.10;;;;;;5005181;28;20122;-73
2023/04/15 03:56:39;;;;;;;3.65;2.42;;;12.20;90.10;;;;;;4996567;28;20034;-74
2023/04/15 03:59:05;;;;;;;4.72;2.88;;;12.10;90.20;;;;;;5003418;28;20033;-74
2023/04/15 04:01:31;;;;;;;2.78;2.33;;;12.10;90.40;;;;;;4996300;28;20033;-74
2023/04/15 04:03:56;;;;;;;2.72;2.45;;;12.00;90.40;;;;;;4992822;28;20034;-74
2023/04/15 04:06:22;;;;;;;4.57;3.30;;;12.00;90.50;;;;;;4993457;28;20566;-75
2023/04/15 04:08:48;;;;;;;4.88;2.70;;;12.00;90.70;;;;;;5000477;28;20026;-75
2023/04/15 04:11:14;;;;;;;2.97;2.67;;;12.00;90.70;;;;;;4998725;28;20037;-75
2023/04/15 04:13:39;;;;;;;4.28;2.85;;;12.00;90.70;;;;;;4997504;28;20106;-74
2023/04/15 04:16:05;;;;;;;2.85;2.30;;;12.00;90.80;;;;;;4997562;28;20360;-74
2023/04/15 04:18:32;;;;;;;4.40;2.88;;;12.10;90.90;;;;;;4993631;28;20576;-79
2023/04/15 04:20:57;;;;;;;4.30;2.88;;;12.00;90.90;;;;;;5005504;28;20030;-79
2023/04/15 04:23:23;;;;;;;4.55;2.70;;;12.00;91.00;;;;;;5002582;28;20035;-80
2023/04/15 04:25:48;;;;;;;6.65;2.63;;;12.00;91.00;;;;;;5003181;28;20037;-80
2023/04/15 04:28:14;;;;;;;4.45;2.15;;;12.00;91.00;;;;;;5001257;28;20037;-80
2023/04/15 04:30:40;;;;;;;3.28;2.30;;;12.00;91.20;;;;;;5006232;28;20042;-79
2023/04/15 04:33:06;;;;;;;3.08;2.50;;;12.00;91.20;;;;;;4996570;28;20031;-80
2023/04/15 04:35:33;;;;;;;3.38;2.47;;;12.00;91.30;;;;;;4996449;28;20030;-78
2023/04/15 04:38:00;;;;;;;3.40;2.58;;;12.00;91.30;;;;;;4998831;28;20472;-79
2023/04/15 04:40:26;;;;;;;3.40;2.83;;;12.10;91.40;;;;;;4991756;28;20384;-79
2023/04/15 04:42:53;;;;;;;4.97;2.67;;;12.10;91.40;;;;;;4996146;28;20117;-78
2023/04/15 04:45:19;;;;;;;5.38;2.58;;;12.10;91.50;;;;;;5003312;28;20026;-79
2023/04/15 04:47:46;;;;;;;4.97;2.60;;;12.10;91.50;;;;;;4993332;28;20121;-79
2023/04/15 04:50:12;;;;;;;3.13;2.25;;;12.20;91.40;;;;;;4997661;28;20018;-79
2023/04/15 04:52:38;;;;;;;4.82;2.65;;;12.20;91.50;;;;;;5000064;28;20040;-78
2023/04/15 04:55:04;;;;;;;3.20;2.30;;;12.20;91.60;;;;;;4996998;28;20480;-79
2023/04/15 04:57:30;;;;;;;3.80;2.15;;;12.20;91.60;;;;;;5002616;28;20033;-78
2023/04/15 04:59:56;;;;;;;3.17;2.08;;;12.20;91.80;;;;;;4996176;28;20022;-80
2023/04/15 05:02:22;;;;;;;5.43;2.05;;;12.20;91.80;;;;;;4995285;28;20027;-75
2023/04/15 05:04:49;;;;;;;3.42;1.90;;;12.20;91.80;;;;;;4999043;28;20456;-79
2023/04/15 05:07:19;;;;;;;5.18;2.00;;;12.30;91.80;;;;;;4996268;28;20022;-79
2023/04/15 05:09:45;;;;;;;2.60;1.73;;;12.30;91.70;;;;;;4996679;28;20060;-75
2023/04/15 05:12:14;;;;;;;3.53;1.55;;;12.40;91.90;;;;;;5000649;28;20026;-81
2023/04/15 05:14:41;;;;;;;4.60;1.70;;;12.40;91.90;;;;;;4999791;28;20110;-81
2023/04/15 05:17:07;;;;;;;2.28;1.67;;;12.50;91.90;;;;;;5004552;28;20864;-81
2023/04/15 05:19:33;;;;;;;2.05;1.52;;;12.50;92.00;;;;;;5000981;28;20030;-81
2023/04/15 05:21:59;;;;;;;3.50;1.70;;;12.50;92.00;;;;;;4994489;28;20502;-81
2023/04/15 05:24:34;;;;;;;1.88;1.17;;;;;;;;;;4997285;28;20116;-81
2023/04/15 05:27:00;;;;;;;3.40;1.48;;;12.50;91.80;;;;;;5001841;28;20041;-81
2023/04/15 05:29:26;;;;;;;2.72;1.42;;;12.60;92.00;;;;;;5002226;28;20026;-81
2023/04/15 05:31:52;;;;;;;2.15;1.35;;;12.60;92.00;;;;;;4997064;28;20042;-82
2023/04/15 05:34:18;;;;;;;3.33;1.27;;;12.60;92.10;;;;;;5008239;28;20026;-82
2023/04/15 05:36:43;;;;;;;3.00;1.27;;;12.50;91.90;;;;;;4997493;28;20036;-81
2023/04/15 05:39:09;;;;;;;2.72;1.10;;;12.60;92.00;;;;;;4993856;28;20041;-82
2023/04/15 05:41:35;;;;;;;4.40;1.40;;;12.70;92.00;;;;;;5002349;28;20018;-82
2023/04/15 05:44:01;;;;;;;2.10;1.10;;;12.70;92.20;;;;;;4999493;28;20041;-82
2023/04/15 05:46:26;;;;;;;2.88;1.00;;;12.70;92.00;;;;;;4997953;28;20120;-83
2023/04/15 05:48:52;;;;;;;4.50;1.23;;;12.70;91.90;;;;;;4998269;28;20476;-82
2023/04/15 05:51:18;;;;;;;3.92;1.20;;;12.80;92.00;;;;;;4992189;28;20022;-75
2023/04/15 05:53:44;;;;;;;5.15;1.02;;;12.80;92.00;;;;;;5003418;28;20479;-75
2023/04/15 05:56:10;;;;;;;2.10;1.08;;;12.80;92.00;;;;;;5000201;28;20026;-73
2023/04/15 05:58:36;;;;;;;2.85;1.00;;;12.30;91.80;;;;;;4974836;28;20026;-73
2023/04/15 06:01:02;;;;;;;1.58;0.88;;;12.90;92.00;;;;;;5002493;28;20093;-73
2023/04/15 06:03:28;;;;;;;1.63;1.08;;;13.00;91.90;;;;;;5003609;28;20117;-81
2023/04/15 06:05:54;;;;;;;4.03;0.95;;;13.00;91.90;;;;;;5002514;28;20030;-82
2023/04/15 06:08:20;;;;;;;4.53;1.02;;;13.00;91.90;;;;;;5007073;28;20029;-83
2023/04/15 06:10:46;;;;;;;2.97;1.65;;;13.10;91.80;;;;;;4993921;28;20026;-82
2023/04/15 06:13:11;;;;;;;5.03;1.15;;;13.10;91.80;;;;;;4996772;28;20042;-74
2023/04/15 06:15:37;;;;;;;3.08;1.35;;;13.20;91.80;;;;;;4997943;28;20113;-74
2023/04/15 06:18:03;;;;;;;4.13;1.40;;;13.20;91.80;;;;;;4998792;28;20019;-74
2023/04/15 06:20:29;;;;;;;2.05;1.20;;;13.30;91.70;;;;;;5003874;28;20384;-74
2023/04/15 06:22:54;;;;;;;3.15;0.82;;;13.40;91.70;;;;;;5000176;28;20022;-74
2023/04/15 06:25:20;;;;;;;2.50;1.17;;;13.40;91.60;;;;;;5001373;28;20025;-74
2023/04/15 06:27:45;;;;;;;4.43;1.40;;;13.50;91.60;;;;;;4995281;28;20041;-74
2023/04/15 06:30:11;;;;;;;2.33;1.10;;;13.60;91.50;;;;;;4993563;28;20110;-74
2023/04/15 06:32:37;;;;;;;3.80;1.42;;;13.60;91.50;;;;;;5005225;28;20495;-74
2023/04/15 06:35:03;;;;;;;3.75;1.25;;;13.70;91.40;;;;;;5002325;28;20069;-75
2023/04/15 06:37:28;;;;;;;2.90;1.30;;;13.70;91.30;;;;;;5000713;28;20026;-75
2023/04/15 06:39:54;;;;;;;2.47;1.10;;;13.70;91.20;;;;;;4998858;28;20034;-75
2023/04/15 06:42:20;;;;;;;2.65;1.25;;;13.80;91.10;;;;;;4996972;28;20030;-75
2023/04/15 06:44:46;;;;;;;3.90;1.50;;;13.80;91.20;;;;;;5004355;28;20037;-77
2023/04/15 06:47:13;;;;;;;2.03;1.20;;;13.90;91.20;;;;;;4976636;28;20495;-83
2023/04/15 06:49:40;;;;;;;4.68;1.27;;;13.90;91.20;;;;;;4995196;28;20097;-81
2023/04/15 06:52:05;;;;;;;3.70;1.40;;;13.90;91.10;;;;;;5003650;28;20022;-81
2023/04/15 06:54:31;;;;;;;1.75;1.20;;;14.00;91.10;;;;;;4999829;28;20034;-83
2023/04/15 06:56:57;;;;;;;3.67;1.40;;;14.00;91.00;;;;;;4978300;28;20034;-81
2023/04/15 06:59:23;;;;;;;3.10;1.23;;;14.00;91.00;;;;;;4998029;28;20118;-82
2023/04/15 07:01:48;;;;;;;5.85;1.50;;;14.10;91.20;;;;;;4999193;28;20033;-75
2023/04/15 07:04:14;;;;;;;2.45;1.33;;;14.00;91.00;;;;;;5001323;28;20460;-74
2023/04/15 07:06:40;;;;;;;3.25;1.30;;;14.10;91.00;;;;;;4998898;28;20053;-82
2023/04/15 07:09:07;;;;;;;2.28;1.08;;;14.10;91.10;;;;;;5004532;28;20027;-81
2023/04/15 07:11:33;;;;;;;5.03;1.60;;;14.20;91.00;;;;;;4996651;28;20034;-80
2023/04/15 07:13:59;;;;;;;2.67;1.20;;;14.30;90.90;;;;;;4999507;28;20027;-80
2023/04/15 07:16:24;;;;;;;3.63;1.30;;;14.30;90.90;;;;;;4994154;28;20025;-80
2023/04/15 07:18:50;;;;;;;3.10;1.63;;;14.40;90.90;;;;;;4996951;28;20037;-80
2023/04/15 07:21:16;;;;;;;4.25;1.38;;;14.40;90.80;;;;;;5005937;28;20023;-80
2023/04/15 07:23:42;;;;;;;5.05;1.77;;;14.50;90.70;;;;;;5003329;28;20021;-80
2023/04/15 07:26:08;;;;;;;4.15;1.50;;;14.50;90.60;;;;;;5006895;28;20037;-80
2023/04/15 07:28:33;;;;;;;4.30;1.40;;;14.60;90.50;;;;;;5001837;28;20045;-81
2023/04/15 07:30:59;;;;;;;2.47;1.38;;;14.60;90.40;;;;;;4993865;28;20018;-80
2023/04/15 07:33:25;;;;;;;3.58;1.48;;;14.70;90.30;;;;;;4999711;28;20033;-80
2023/04/15 07:35:51;;;;;;;4.38;1.50;;;14.70;90.30;;;;;;4998407;28;20396;-80
2023/04/15 07:38:16;;;;;;;1.95;1.10;;;14.70;90.00;;;;;;5005952;28;20026;-80
2023/04/15 07:40:42;;;;;;;3.75;1.80;;;14.70;90.00;;;;;;4997359;28;20022;-80
2023/04/15 07:43:08;;;;;;;4.03;1.40;;;14.70;90.00;;;;;;5010573;28;20119;-80
2023/04/15 07:45:34;;;;;;;5.53;1.85;;;14.80;90.10;;;;;;4991257;28;20033;-80
2023/04/15 07:48:01;;;;;;;3.92;1.73;;;14.80;90.00;;;;;;5001049;28;20042;-80
2023/04/15 07:50:27;;;;;;;1.83;1.70;;;14.90;90.00;;;;;;5002834;28;20034;-80
2023/04/15 07:52:53;;;;;;;3.20;1.30;;;15.10;90.00;;;;;;5002733;28;20030;-80
2023/04/15 07:55:21;;;;;;;2.60;1.42;;;15.20;89.70;;;;;;5006694;28;20040;-80
2023/04/15 07:57:48;;;;;;;2.72;1.10;;;15.20;89.40;;;;;;5001838;28;20042;-80
2023/04/15 08:00:15;;;;;;;2.45;1.13;;;15.30;89.10;;;;;;5006890;28;20057;-81
2023/04/15 08:02:42;;;;;;;3.88;1.50;;;15.40;89.20;;;;;;5000270;28;20037;-80
2023/04/15 08:05:09;;;;;;;3.00;1.38;;;15.40;88.90;;;;;;4994370;28;20030;-81
2023/04/15 08:07:36;;;;;;;4.03;1.45;;;15.50;88.50;;;;;;5003583;28;20030;-76
2023/04/15 08:10:02;;;;;;;3.50;1.30;;;15.50;88.40;;;;;;5005928;28;20065;-76
2023/04/15 08:12:28;;;;;;;2.85;1.38;;;15.60;88.30;;;;;;4986266;28;20049;-75
2023/04/15 08:14:54;;;;;;;4.47;1.30;;;15.60;88.30;;;;;;4998134;28;20503;-75
2023/04/15 08:17:20;;;;;;;4.45;1.67;;;15.70;88.30;;;;;;4986607;28;20081;-76
2023/04/15 08:19:47;;;;;;;3.05;1.40;;;15.80;88.00;;;;;;4994576;28;20401;-77
2023/04/15 08:22:13;;;;;;;3.05;1.33;;;15.80;87.80;;;;;;4979219;28;20448;-76
2023/04/15 08:24:39;;;;;;;2.90;1.38;;;15.90;87.80;;;;;;4980372;28;20049;-76
2023/04/15 08:27:06;;;;;;;6.43;1.58;;;16.00;87.70;;;;;;4977688;28;20140;-83
2023/04/15 08:29:33;;;;;;;2.53;1.25;;;16.10;87.40;;;;;;5000659;28;20120;-82
2023/04/15 08:32:00;;;;;;;3.28;1.17;;;16.10;87.20;;;;;;5004760;28;20046;-82
2023/04/15 08:34:26;;;;;;;3.08;1.45;;;16.20;87.00;;;;;;4976534;28;20072;-82
2023/04/15 08:36:55;;;;;;;3.85;1.58;;;16.20;86.90;;;;;;4995588;28;20053;-80
2023/04/15 08:39:21;;;;;;;3.50;1.65;;;16.30;87.00;;;;;;4993217;28;20050;-82
2023/04/15 08:41:51;;;;;;;3.15;1.25;;;16.40;86.80;;;;;;4994455;28;20042;-81
2023/04/15 08:44:17;;;;;;;;;;;16.40;86.30;;;;;;5006711;28;20052;-80
2023/04/15 08:46:43;;;;;;;7.05;1.65;;;16.40;85.80;;;;;;4999613;28;20367;-88
2023/04/15 08:49:12;;;;;;;4.32;1.20;;;16.40;84.80;;;;;;4998594;28;20026;-84
2023/04/15 08:51:39;;;;;;;3.65;1.42;;;16.40;85.30;;;;;;5006634;28;20037;-82
2023/04/15 08:54:07;;;;;;;2.25;1.02;;;16.50;85.40;;;;;;5001357;28;20073;-83
2023/04/15 08:56:34;;;;;;;6.22;1.48;;;16.50;85.30;;;;;;5005320;28;20373;-83
2023/04/15 08:59:00;;;;;;;3.30;1.33;;;16.60;84.90;;;;;;4996095;28;20030;-83
2023/04/15 09:01:26;;;;;;;4.93;1.15;;;16.60;84.40;;;;;;5002498;28;20105;-83
2023/04/15 09:03:53;;;;;;;2.38;1.25;;;16.50;83.80;;;;;;5005790;28;20109;-83
2023/04/15 09:06:20;;;;;;;3.60;1.20;;;16.50;84.30;;;;;;5002350;28;20068;-85
2023/04/15 09:08:46;;;;;;;2.28;0.90;;;16.60;84.20;;;;;;4999104;28;20105;-83
2023/04/15 09:11:12;;;;;;;5.50;1.17;;;16.60;83.50;;;;;;5002547;28;20122;-83
2023/04/15 09:13:37;;;;;;;7.10;1.38;;;16.70;83.20;;;;;;4990436;28;20026;-82
2023/04/15 09:16:05;;;;;;;3.78;1.30;;;16.90;83.30;;;;;;5001428;28;20022;-82
2023/04/15 09:18:33;;;;;;;4.75;1.20;;;17.00;82.60;;;;;;5008000;28;20026;-83
2023/04/15 09:21:14;;;;;;;3.20;1.17;;;17.00;81.50;;;;;;5004702;28;20034;-82
2023/04/15 09:23:53;;;;;;;3.13;1.25;;;17.10;81.80;;;;;;4995034;28;20507;-82
2023/04/15 09:26:18;;;;;;;4.90;1.30;;;17.10;81.60;;;;;;4993018;28;20057;-75
2023/04/15 09:28:44;;;;;;;2.05;1.05;;;17.10;81.10;;;;;;4999433;28;20088;-75
2023/04/15 09:31:10;;;;;;;3.33;1.38;;;17.10;81.20;;;;;;4992703;28;20041;-75
2023/04/15 09:33:54;;;;;;;2.55;1.08;;;17.20;81.50;;;;;;5001204;28;20113;-75
2023/04/15 09:36:19;;;;;;;4.40;0.98;;;17.30;81.30;;;;;;4997155;28;20130;-75
2023/04/15 09:38:58;;;;;;;5.80;1.65;;;17.40;81.40;;;;;;4996479;28;20105;-76
2023/04/15 09:41:25;;;;;;;2.65;1.00;;;17.60;80.10;;;;;;4996409;28;20045;-75
2023/04/15 09:43:51;;;;;;;3.75;1.00;;;17.70;80.30;;;;;;5003194;28;20042;-76
2023/04/15 09:46:17;;;;;;;3.97;1.35;;;17.70;79.10;;;;;;5005675;28;20384;-76
2023/04/15 09:48:43;;;;;;;2.95;1.13;;;17.80;79.20;;;;;;5001244;28;20022;-76
2023/04/15 09:51:09;;;;;;;3.70;1.30;;;17.90;78.60;;;;;;5000565;28;20283;-75
2023/04/15 09:53:35;;;;;;;3.78;1.20;;;18.00;78.10;;;;;;4999698;28;20034;-75
2023/04/15 09:56:02;;;;;;;6.05;1.73;;;18.10;78.20;;;;;;5000474;28;20125;-75
2023/04/15 09:58:28;;;;;;;2.10;1.00;;;18.10;77.30;;;;;;4991540;28;20041;-75
2023/04/15 10:00:56;;;;;;;4.85;1.40;;;18.00;77.40;;;;;;4995530;28;20079;-81
2023/04/15 10:03:30;;;;;;;2.80;1.00;;;18.10;76.80;;;;;;4981174;28;20034;-82
2023/04/15 10:05:58;;;;;;;6.95;1.48;;;18.00;76.30;;;;;;4997068;28;20030;-83
2023/04/15 10:08:29;;;;;;;4.15;1.13;;;18.00;77.00;;;;;;5008005;28;20040;-82
2023/04/15 10:10:55;;;;;;;5.53;1.17;;;17.90;76.50;;;;;;4993638;28;20094;-82
2023/04/15 10:13:25;;;;;;;3.70;1.50;;;18.00;76.60;;;;;;4994142;28;20026;-82
2023/04/15 10:15:59;;;;;;;5.13;1.27;;;18.00;76.80;;;;;;4995237;28;20034;-82
2023/04/15 10:18:27;;;;;;;2.78;1.05;;;18.00;76.10;;;;;;5002253;28;20026;-82
2023/04/15 10:20:54;;;;;;;2.45;0.95;;;18.10;77.00;;;;;;5006831;28;20033;-82
2023/04/15 10:23:21;;;;;;;3.13;1.33;;;18.30;77.60;;;;;;4997981;28;20026;-76
2023/04/15 10:25:49;;;;;;;3.38;1.13;;;18.50;74.90;;;;;;4993008;28;20082;-75
2023/04/15 10:28:16;;;;;;;1.80;0.80;;;18.60;75.60;;;;;;5000186;28;20502;-75
2023/04/15 10:30:42;;;;;;;2.67;1.00;;;18.70;74.70;;;;;;4996440;28;20038;-75
2023/04/15 10:33:10;;;;;;;5.85;0.93;;;18.80;73.90;;;;;;4993882;28;20439;-83
2023/04/15 10:35:36;;;;;;;3.60;1.10;;;18.80;74.10;;;;;;4997263;28;20369;-82
2023/04/15 10:38:22;;;;;;;3.35;1.10;;;18.80;73.00;;;;;;5000436;28;20023;-82
2023/04/15 10:40:49;;;;;;;1.92;0.90;;;18.90;73.30;;;;;;5003304;28;20179;-82
2023/04/15 10:43:27;;;;;;;1.95;0.70;;;19.00;73.80;;;;;;5002219;28;20057;-82
2023/04/15 10:45:53;;;;;;;3.28;0.95;;;19.10;72.80;;;;;;5003286;28;20499;-82
2023/04/15 10:48:19;;;;;;;4.10;0.82;;;19.30;73.30;;;;;;4997003;28;20307;-82
2023/04/15 10:50:56;;;;;;;2.88;1.00;;;19.50;72.80;;;;;;4999067;28;20088;-82
2023/04/15 10:53:30;;;;;;;4.35;1.40;;;19.70;72.40;;;;;;5005588;28;20089;-82
2023/04/15 10:55:57;;;;;;;3.65;1.08;;;19.80;69.00;;;;;;4973456;28;20061;-75
2023/04/15 10:58:24;;;;;;;4.25;0.90;;;19.90;70.30;;;;;;4999503;28;20030;-76
2023/04/15 11:00:51;;;;;;;3.00;1.00;;;20.20;70.80;;;;;;4998543;28;20389;-75
2023/04/15 11:03:37;;;;;;;7.75;1.50;;;20.30;69.50;;;;;;5001241;28;20469;-76
2023/04/15 11:06:05;;;;;;;2.35;0.65;;;20.50;68.90;;;;;;5001223;28;20488;-76
2023/04/15 11:08:55;;;;;;;3.97;1.08;;;20.70;68.30;;;;;;4988363;28;20569;-76
2023/04/15 11:11:21;;;;;;;2.58;0.85;;;20.80;68.00;;;;;;4996856;28;20109;-76
2023/04/15 11:13:49;;;;;;;2.25;0.88;;;20.70;67.90;;;;;;4984829;28;20033;-77
2023/04/15 11:16:15;;;;;;;3.00;1.00;;;20.50;67.60;;;;;;4991800;28;20163;-77
2023/04/15 11:18:40;;;;;;;3.38;1.10;;;20.30;67.80;;;;;;4994479;28;20026;-77
2023/04/15 11:21:08;;;;;;;3.40;1.00;;;20.20;68.20;;;;;;4992985;28;20035;-77
2023/04/15 11:23:39;;;;;;;2.80;1.05;;;20.10;68.50;;;;;;4996009;28;20026;-77
2023/04/15 11:26:13;;;;;;;3.88;1.23;;;20.20;68.50;;;;;;4994459;28;20188;-77
2023/04/15 11:28:43;;;;;;;1.90;0.80;;;20.60;69.00;;;;;;5003160;28;20109;-77
2023/04/15 11:31:17;;;;;;;2.65;0.98;;;21.00;68.20;;;;;;4992603;28;20041;-77
2023/04/15 11:33:57;;;;;;;2.40;1.05;;;21.70;67.90;;;;;;4994564;28;20400;-77
2023/04/15 11:36:26;;;;;;;3.03;1.00;;;23.20;64.90;;;;;;4998386;28;20026;-77
2023/04/15 11:38:51;;;;;;;4.85;1.58;;;23.70;62.00;;;;;;5002731;28;20030;-77
2023/04/15 11:41:21;;;;;;;4.18;1.02;;;24.10;61.10;;;;;;4991860;28;20369;-77
2023/04/15 11:43:47;;;;;;;6.78;1.50;;;25.20;58.40;;;;;;5000006;28;20053;-77
2023/04/15 11:46:13;;;;;;;2.28;1.10;;;26.10;56.00;;;;;;4995454;28;20785;-77
2023/04/15 11:48:43;;;;;;;1.98;1.10;;;26.80;54.60;;;;;;4997543;28;20044;-82
2023/04/15 11:51:09;;;;;;;4.53;1.10;;;27.30;54.00;;;;;;4999700;28;20050;-82
2023/04/15 11:53:45;;;;;;;2.72;1.25;;;27.30;52.50;;;;;;5006245;28;20419;-82
2023/04/15 11:56:20;;;;;;;2.97;1.25;;;26.70;52.80;;;;;;5000069;28;20038;-82
2023/04/15 11:58:48;;;;;;;2.80;1.15;;;26.10;53.30;;;;;;4998067;28;20038;-82
2023/04/15 12:01:14;;;;;;;2.53;1.08;;;25.50;53.50;;;;;;4990375;28;20050;-83
2023/04/15 12:03:41;;;;;;;5.97;1.30;;;24.70;53.40;;;;;;4997319;28;20085;-83
2023/04/15 12:06:18;;;;;;;7.43;1.10;;;23.70;55.30;;;;;;4995609;28;20035;-82
2023/04/15 12:08:59;;;;;;;3.55;1.48;;;23.00;56.40;;;;;;5003267;28;20042;-84
2023/04/15 12:11:48;;;;;;;3.17;1.35;;;22.90;58.30;;;;;;5003240;28;20040;-76
2023/04/15 12:14:25;;;;;;;3.83;1.50;;;22.70;58.30;;;;;;4994799;28;20033;-77
2023/04/15 12:17:12;;;;;;;3.60;1.33;;;22.30;59.30;;;;;;4993394;28;20039;-77
2023/04/15 12:19:42;;;;;;;3.25;1.40;;;22.00;60.10;;;;;;5000128;28;20038;-77
2023/04/15 12:22:11;;;;;;;4.28;1.50;;;22.30;62.30;;;;;;5001020;28;20077;-77
2023/04/15 12:24:38;;;;;;;6.07;1.50;;;22.70;61.50;;;;;;5001930;28;20074;-77
2023/04/15 12:27:11;;;;;;;5.97;2.05;;;22.80;60.00;;;;;;5008923;28;20049;-77
2023/04/15 12:29:38;;;;;;;6.65;1.92;;;22.90;60.30;;;;;;4997358;28;20034;-77
2023/04/15 12:32:10;;;;;;;6.68;2.53;;;23.50;60.40;;;;;;4997810;28;20045;-77
2023/04/15 12:34:41;;;;;;;8.98;1.98;;;24.20;58.60;;;;;;5000670;28;20084;-77
2023/04/15 12:37:09;;;;;;;7.15;1.63;;;25.00;56.50;;;;;;5004647;28;20031;-78
2023/04/15 12:39:37;;;;;;;5.95;1.73;;;25.70;55.30;;;;;;4996067;28;20029;-77
2023/04/15 12:42:04;;;;;;;5.85;1.63;;;26.30;54.00;;;;;;4996908;28;20416;-77
2023/04/15 12:44:30;;;;;;;6.85;2.30;;;26.80;52.00;;;;;;4999393;28;20038;-77
2023/04/15 12:46:56;;;;;;;9.13;2.38;;;27.30;51.50;;;;;;5004586;28;20034;-77
2023/04/15 12:49:23;;;;;;;5.35;1.70;;;27.70;50.80;;;;;;5001654;28;20034;-78